Dione Star — CRA7129 — position and weather

sailwx.info

Track history (hours):
 
Tides and Currents Weather Stations Pressure Air Temp Water Temp Dewpoint Dewpoint Depression Visibility Wind Speed Wind Dir Waves Ship Positions

Dione Star

Last reported at 2018-Feb-11 21:42 UTC. Time now 2018-Feb-21 17:48 UTC.
Position N 09°36' W 079°41'.
Warning: this ship's position is 9 days out of date.

Length 42 m; draft 4 m.

Type: Fishing. MMSI: 255912960.

Date/timePositionNaut miles runAvg speedWind from/ knotsBaromVisibWave heightAir tempDewpointWater temp
2018-Feb-11 21:42N 09°36' W 079°41'2 6.6
2018-Feb-11 21:27N 09°34' W 079°42'3 6.6
2018-Feb-11 21:00N 09°32' W 079°45'3 6.4
2018-Feb-11 20:30N 09°30' W 079°47'3 6.3
2018-Feb-11 20:00N 09°28' W 079°49'3 6.2
2018-Feb-11 19:30N 09°27' W 079°52'3 6.2
2018-Feb-11 19:00N 09°25' W 079°55'4 7.1
2018-Feb-11 18:30N 09°21' W 079°55'1 1.6
2018-Feb-11 17:58N 09°20' W 079°55'0 0.0
2018-Feb-11 17:28N 09°21' W 079°55'0 0.0
2018-Feb-11 16:58N 09°20' W 079°55'0 0.0
2018-Feb-11 16:29N 09°20' W 079°55'0 0.0
2018-Feb-11 16:00N 09°21' W 079°55'0 0.0
2018-Feb-11 15:30N 09°21' W 079°55'0 0.0
2018-Feb-11 15:00N 09°21' W 079°55'0 0.0
2018-Feb-11 14:30N 09°20' W 079°55'0 0.0
2018-Feb-11 14:00N 09°21' W 079°55'0 0.0
2018-Feb-11 13:30N 09°21' W 079°55'0 0.0
2018-Feb-11 13:00N 09°21' W 079°55'0 0.0
2018-Feb-11 12:30N 09°21' W 079°55'0 0.0
2018-Feb-11 12:00N 09°20' W 079°55'0 0.0
2018-Feb-11 11:30N 09°20' W 079°55'0 0.0
2018-Feb-11 11:00N 09°21' W 079°55'0 0.0
2018-Feb-11 10:30N 09°21' W 079°55'2 3.2
2018-Feb-11 10:00N 09°19' W 079°55'2 4.6
2018-Feb-11 09:30N 09°17' W 079°55'0 0.4
2018-Feb-11 09:00N 09°16' W 079°55'0 0.6
2018-Feb-11 08:30N 09°16' W 079°55'3 5.8
2018-Feb-11 08:00N 09°13' W 079°55'4 7.1
2018-Feb-11 07:29N 09°11' W 079°52'  
Track history (hours):
 
Tides and Currents Weather Stations Pressure Air Temp Water Temp Dewpoint Dewpoint Depression Visibility Wind Speed Wind Dir Waves Ship Positions

Dione Star

Last reported at 2018-Feb-11 21:42 UTC. Time now 2018-Feb-21 17:48 UTC.
Position N 09°36' W 079°41'.
Warning: this ship's position is 9 days out of date.

Length 42 m; draft 4 m.

Type: Fishing. MMSI: 255912960.

Date/timePositionNaut miles runAvg speedWind from/ knotsBaromVisibWave heightAir tempDewpointWater temp
2018-Feb-11 21:42N 09°36' W 079°41'2 6.6
2018-Feb-11 21:27N 09°34' W 079°42'3 6.6
2018-Feb-11 21:00N 09°32' W 079°45'3 6.4
2018-Feb-11 20:30N 09°30' W 079°47'3 6.3
2018-Feb-11 20:00N 09°28' W 079°49'3 6.2
2018-Feb-11 19:30N 09°27' W 079°52'3 6.2
2018-Feb-11 19:00N 09°25' W 079°55'4 7.1
2018-Feb-11 18:30N 09°21' W 079°55'1 1.6
2018-Feb-11 17:58N 09°20' W 079°55'0 0.0
2018-Feb-11 17:28N 09°21' W 079°55'0 0.0
2018-Feb-11 16:58N 09°20' W 079°55'0 0.0
2018-Feb-11 16:29N 09°20' W 079°55'0 0.0
2018-Feb-11 16:00N 09°21' W 079°55'0 0.0
2018-Feb-11 15:30N 09°21' W 079°55'0 0.0
2018-Feb-11 15:00N 09°21' W 079°55'0 0.0
2018-Feb-11 14:30N 09°20' W 079°55'0 0.0
2018-Feb-11 14:00N 09°21' W 079°55'0 0.0
2018-Feb-11 13:30N 09°21' W 079°55'0 0.0
2018-Feb-11 13:00N 09°21' W 079°55'0 0.0
2018-Feb-11 12:30N 09°21' W 079°55'0 0.0
2018-Feb-11 12:00N 09°20' W 079°55'0 0.0
2018-Feb-11 11:30N 09°20' W 079°55'0 0.0
2018-Feb-11 11:00N 09°21' W 079°55'0 0.0
2018-Feb-11 10:30N 09°21' W 079°55'2 3.2
2018-Feb-11 10:00N 09°19' W 079°55'2 4.6
2018-Feb-11 09:30N 09°17' W 079°55'0 0.4
2018-Feb-11 09:00N 09°16' W 079°55'0 0.6
2018-Feb-11 08:30N 09°16' W 079°55'3 5.8
2018-Feb-11 08:00N 09°13' W 079°55'4 7.1
2018-Feb-11 07:29N 09°11' W 079°52'  

Dump ship's entire track history